Time;durP1;ratioP1;P1;durP2;ratioP2;P2;SDS_P1;SDS_P2;PMS_P1;PMS_P2;Temp;Humidity;BMP_temperature;BMP_pressure;BME280_temperature;BME280_humidity;BME280_pressure;Samples;Min_cycle;Max_cycle;Signal;HPM_P1;HPM_P2
2021/01/13 00:02:24;;;;;;;7.68;2.40;;;;;;;;;;4982720;28;20073;-57
2021/01/13 00:04:50;;;;;;;6.65;1.80;;;;;;;;;;4984467;28;20137;-57
2021/01/13 00:07:16;;;;;;;3.22;1.10;;;;;;;;;;4978007;28;20042;-57
2021/01/13 00:09:42;;;;;;;4.70;1.10;;;;;;;;;;4987045;28;20340;-56
2021/01/13 00:12:08;;;;;;;4.30;0.80;;;;;;;;;;4983642;28;20030;-57
2021/01/13 00:14:34;;;;;;;4.13;1.02;;;;;;;;;;4983076;28;20066;-55
2021/01/13 00:17:00;;;;;;;3.22;0.80;;;;;;;;;;4982850;28;20140;-56
2021/01/13 00:19:26;;;;;;;7.20;1.50;;;;;;;;;;4965292;28;20038;-56
2021/01/13 00:21:53;;;;;;;6.25;1.30;;;;;;;;;;4984636;28;20104;-56
2021/01/13 00:24:19;;;;;;;3.00;0.70;;;;;;;;;;4960946;28;20042;-57
2021/01/13 00:26:45;;;;;;;3.40;0.90;;;;;;;;;;4984120;28;20631;-57
2021/01/13 00:29:11;;;;;;;2.00;0.60;;;;;;;;;;4983218;28;20048;-56
2021/01/13 00:31:38;;;;;;;2.58;0.50;;;;;;;;;;4982919;28;20124;-56
2021/01/13 00:34:07;;;;;;;1.80;0.50;;;;;;;;;;4983841;28;20077;-58
2021/01/13 00:36:33;;;;;;;1.75;0.50;;;;;;;;;;4982444;28;20054;-57
2021/01/13 00:38:59;;;;;;;2.17;0.40;;;;;;;;;;4985894;28;20064;-58
2021/01/13 00:41:24;;;;;;;1.83;0.50;;;;;;;;;;4990592;28;20474;-58
2021/01/13 00:43:51;;;;;;;1.15;0.40;;;;;;;;;;4990227;28;20046;-58
2021/01/13 00:46:17;;;;;;;2.22;0.40;;;;;;;;;;4992862;28;20089;-58
2021/01/13 00:48:43;;;;;;;1.35;0.40;;;;;;;;;;4990758;28;20034;-55
2021/01/13 00:51:09;;;;;;;1.33;0.47;;;;;;;;;;4993537;28;20053;-58
2021/01/13 00:53:35;;;;;;;6.35;0.50;;;;;;;;;;4993802;28;20042;-55
2021/01/13 00:56:02;;;;;;;1.27;0.40;;;;;;;;;;4987296;28;20050;-57
2021/01/13 00:58:27;;;;;;;1.00;0.40;;;;;;;;;;4991463;28;20073;-58
2021/01/13 01:00:54;;;;;;;2.72;0.50;;;;;;;;;;4994463;28;20173;-53
2021/01/13 01:03:19;;;;;;;1.58;0.38;;;;;;;;;;4989443;28;20061;-58
2021/01/13 01:05:46;;;;;;;3.25;0.60;;;;;;;;;;4991997;28;20057;-57
2021/01/13 01:08:11;;;;;;;1.75;0.30;;;;;;;;;;4991951;28;20148;-56
2021/01/13 01:10:38;;;;;;;3.15;0.40;;;;;;;;;;4992889;28;20501;-55
2021/01/13 01:13:05;;;;;;;0.93;0.40;;;;;;;;;;4991645;28;20471;-58
2021/01/13 01:15:31;;;;;;;2.83;0.40;;;;;;;;;;4992313;28;21005;-57
2021/01/13 01:17:57;;;;;;;1.25;0.30;;;;;;;;;;4991888;28;20422;-57
2021/01/13 01:20:22;;;;;;;0.65;0.30;;;;;;;;;;4990971;28;20038;-58
2021/01/13 01:23:08;;;;;;;3.15;0.50;;;;;;;;;;4990491;28;20132;-57
2021/01/13 01:25:34;;;;;;;0.90;0.30;;;;;;;;;;4973972;28;20548;-57
2021/01/13 01:28:00;;;;;;;2.33;0.30;;;;;;;;;;4990787;28;20045;-58
2021/01/13 01:30:27;;;;;;;0.32;0.30;;;;;;;;;;4992754;28;20433;-58
2021/01/13 01:32:53;;;;;;;0.68;0.30;;;;;;;;;;4988689;28;20042;-56
2021/01/13 01:35:19;;;;;;;0.82;0.38;;;;;;;;;;4992973;28;20045;-57
2021/01/13 01:37:46;;;;;;;1.55;0.40;;;;;;;;;;4993008;28;20050;-57
2021/01/13 01:40:13;;;;;;;0.30;0.30;;;;;;;;;;4989928;28;20053;-57
2021/01/13 01:42:50;;;;;;;0.60;0.30;;;;;;;;;;4989616;28;20037;-55
2021/01/13 01:45:17;;;;;;;0.43;0.30;;;;;;;;;;4993991;28;20034;-55
2021/01/13 01:48:06;;;;;;;0.65;0.32;;;;;;;;;;4991815;28;20205;-59
2021/01/13 01:50:33;;;;;;;0.63;0.38;;;;;;;;;;4991240;28;20137;-56
2021/01/13 01:53:22;;;;;;;0.82;0.40;;;;;;;;;;4974355;28;20141;-56
2021/01/13 01:55:51;;;;;;;1.30;0.40;;;;;;;;;;4980713;28;20057;-56
2021/01/13 01:58:25;;;;;;;0.57;0.30;;;;;;;;;;4990953;28;20077;-57
2021/01/13 02:00:53;;;;;;;1.27;0.50;;;;;;;;;;4992447;28;20046;-57
2021/01/13 02:03:21;;;;;;;0.98;0.40;;;;;;;;;;4993419;28;20046;-55
2021/01/13 02:05:48;;;;;;;1.70;0.50;;;;;;;;;;4991789;28;20048;-57
2021/01/13 02:08:21;;;;;;;4.57;0.50;;;;;;;;;;4991510;28;20045;-57
2021/01/13 02:10:48;;;;;;;2.40;0.60;;;;;;;;;;4973567;28;20045;-57
2021/01/13 02:13:14;;;;;;;4.60;0.85;;;;;;;;;;4992612;28;20038;-56
2021/01/13 02:15:40;;;;;;;4.28;0.80;;;;;;;;;;4991736;28;20140;-56
2021/01/13 02:18:08;;;;;;;4.65;1.70;;;;;;;;;;4992643;28;20065;-56
2021/01/13 02:20:36;;;;;;;8.60;2.20;;;;;;;;;;4989317;28;20062;-55
2021/01/13 02:23:05;;;;;;;5.40;1.23;;;;;;;;;;4991399;28;20046;-55
2021/01/13 02:25:37;;;;;;;3.38;0.70;;;;;;;;;;4991581;28;20046;-55
2021/01/13 02:28:05;;;;;;;4.03;0.80;;;;;;;;;;4991482;28;20069;-62
2021/01/13 02:30:37;;;;;;;2.78;0.82;;;;;;;;;;4990759;28;20051;-56
2021/01/13 02:33:06;;;;;;;3.08;0.98;;;;;;;;;;4993348;28;20562;-56
2021/01/13 02:35:41;;;;;;;2.03;0.65;;;;;;;;;;4975733;28;20053;-56
2021/01/13 02:38:09;;;;;;;2.25;0.70;;;;;;;;;;4995707;28;20128;-54
2021/01/13 02:40:36;;;;;;;4.03;0.80;;;;;;;;;;4994302;28;20039;-56
2021/01/13 02:43:02;;;;;;;3.45;0.60;;;;;;;;;;4993596;28;20029;-57
2021/01/13 02:45:30;;;;;;;3.83;0.70;;;;;;;;;;4995151;28;20108;-56
2021/01/13 02:47:59;;;;;;;2.53;0.63;;;;;;;;;;4995091;28;20553;-57
2021/01/13 02:50:26;;;;;;;3.63;0.80;;;;;;;;;;4991871;28;20042;-58
2021/01/13 02:53:25;;;;;;;4.78;1.60;;;;;;;;;;4986730;28;20068;-57
2021/01/13 02:55:51;;;;;;;3.75;1.30;;;;;;;;;;4993847;28;20061;-57
2021/01/13 02:58:27;;;;;;;3.30;1.00;;;;;;;;;;4996616;28;20037;-57
2021/01/13 03:00:53;;;;;;;5.25;0.50;;;;;;;;;;4997137;28;20046;-57
2021/01/13 03:03:19;;;;;;;2.50;0.60;;;;;;;;;;4995091;28;20510;-57
2021/01/13 03:05:45;;;;;;;1.85;0.60;;;;;;;;;;4999123;28;20046;-57
2021/01/13 03:08:12;;;;;;;1.90;0.50;;;;;;;;;;4995182;28;20505;-57
2021/01/13 03:10:39;;;;;;;3.67;1.25;;;;;;;;;;4994083;28;20047;-57
2021/01/13 03:13:06;;;;;;;1.50;0.40;;;;;;;;;;4992423;28;20543;-57
2021/01/13 03:15:34;;;;;;;1.60;0.50;;;;;;;;;;4993691;28;20038;-57
2021/01/13 03:18:00;;;;;;;5.72;0.50;;;;;;;;;;4992506;28;20054;-56
2021/01/13 03:20:26;;;;;;;1.50;0.40;;;;;;;;;;4991135;28;20699;-57
2021/01/13 03:23:04;;;;;;;2.22;0.40;;;;;;;;;;4993784;28;20132;-57
2021/01/13 03:25:35;;;;;;;1.50;0.40;;;;;;;;;;4991634;28;20046;-57
2021/01/13 03:28:02;;;;;;;0.52;0.35;;;;;;;;;;4993427;28;20069;-58
2021/01/13 03:30:29;;;;;;;0.73;0.38;;;;;;;;;;4992210;28;20034;-58
2021/01/13 03:32:58;;;;;;;1.42;0.47;;;;;;;;;;4992090;28;20129;-57
2021/01/13 03:35:28;;;;;;;1.33;0.40;;;;;;;;;;4993394;28;20065;-57
2021/01/13 03:37:56;;;;;;;1.73;0.43;;;;;;;;;;4990426;28;20069;-56
2021/01/13 03:40:23;;;;;;;1.20;0.40;;;;;;;;;;4989519;28;20042;-56
2021/01/13 03:42:53;;;;;;;2.10;0.47;;;;;;;;;;4990564;28;20565;-57
2021/01/13 03:45:32;;;;;;;1.55;0.50;;;;;;;;;;4973229;28;20085;-56
2021/01/13 03:48:15;;;;;;;1.90;0.50;;;;;;;;;;4992868;28;20065;-56
2021/01/13 03:50:43;;;;;;;4.35;0.55;;;;;;;;;;4991701;28;20049;-56
2021/01/13 03:53:10;;;;;;;2.08;0.50;;;;;;;;;;4992295;28;20057;-53
2021/01/13 03:55:37;;;;;;;3.80;0.43;;;;;;;;;;4991695;28;20069;-56
2021/01/13 03:58:09;;;;;;;0.77;0.40;;;;;;;;;;4992428;28;20053;-56
2021/01/13 04:00:47;;;;;;;4.63;0.50;;;;;;;;;;4991070;28;20383;-57
2021/01/13 04:03:21;;;;;;;2.05;0.40;;;;;;;;;;4992721;28;20570;-56
2021/01/13 04:06:06;;;;;;;2.20;0.50;;;;;;;;;;4991345;28;20070;-56
2021/01/13 04:08:36;;;;;;;3.00;0.70;;;;;;;;;;4992157;28;20558;-56
2021/01/13 04:11:04;;;;;;;3.80;1.50;;;;;;;;;;4990656;28;20038;-57
2021/01/13 04:13:35;;;;;;;3.78;1.17;;;;;;;;;;4990576;28;20073;-57
2021/01/13 04:16:01;;;;;;;2.05;0.60;;;;;;;;;;4991672;28;20042;-56
2021/01/13 04:18:27;;;;;;;2.35;0.50;;;;;;;;;;4989901;28;20506;-53
2021/01/13 04:20:54;;;;;;;1.90;0.70;;;;;;;;;;4991058;28;20441;-55
2021/01/13 04:23:20;;;;;;;1.50;0.57;;;;;;;;;;4991719;28;20056;-56
2021/01/13 04:25:46;;;;;;;2.38;0.70;;;;;;;;;;4990393;28;20038;-56
2021/01/13 04:28:12;;;;;;;2.85;0.80;;;;;;;;;;4991240;28;20034;-55
2021/01/13 04:30:38;;;;;;;3.47;1.27;;;;;;;;;;4992464;28;21844;-56
2021/01/13 04:33:04;;;;;;;5.85;2.00;;;;;;;;;;4991181;28;20068;-55
2021/01/13 04:35:30;;;;;;;3.70;1.40;;;;;;;;;;4990976;28;20050;-56
2021/01/13 04:37:57;;;;;;;3.72;1.40;;;;;;;;;;4991508;28;20057;-56
2021/01/13 04:40:26;;;;;;;3.65;1.10;;;;;;;;;;4988959;28;20046;-56
2021/01/13 04:43:11;;;;;;;6.32;1.63;;;;;;;;;;4992025;28;20498;-56
2021/01/13 04:45:37;;;;;;;4.13;0.95;;;;;;;;;;4990241;28;20050;-55
2021/01/13 04:48:07;;;;;;;2.75;0.50;;;;;;;;;;4990745;28;20045;-56
2021/01/13 04:50:34;;;;;;;1.17;0.60;;;;;;;;;;4990536;28;20169;-56
2021/01/13 04:53:00;;;;;;;1.35;0.40;;;;;;;;;;4989962;28;20216;-57
2021/01/13 04:55:27;;;;;;;2.20;0.50;;;;;;;;;;4991317;28;20038;-57
2021/01/13 04:57:59;;;;;;;2.30;0.50;;;;;;;;;;4989733;28;20133;-56
2021/01/13 05:00:37;;;;;;;2.60;0.60;;;;;;;;;;4987166;28;20711;-56
2021/01/13 05:03:22;;;;;;;1.70;0.52;;;;;;;;;;4990278;28;20049;-55
2021/01/13 05:05:56;;;;;;;1.98;0.60;;;;;;;;;;4990080;28;21361;-57
2021/01/13 05:08:22;;;;;;;4.05;0.85;;;;;;;;;;4990765;28;20116;-56
2021/01/13 05:10:50;;;;;;;2.80;0.65;;;;;;;;;;4988388;28;21707;-57
2021/01/13 05:13:17;;;;;;;2.83;0.85;;;;;;;;;;4991677;28;20418;-57
2021/01/13 05:15:56;;;;;;;1.65;0.50;;;;;;;;;;4989999;28;20089;-57
2021/01/13 05:18:34;;;;;;;2.15;0.60;;;;;;;;;;4990069;28;20140;-57
2021/01/13 05:21:03;;;;;;;2.67;0.60;;;;;;;;;;4989834;28;20052;-56
2021/01/13 05:23:32;;;;;;;2.33;0.63;;;;;;;;;;4988417;28;20474;-57
2021/01/13 05:25:58;;;;;;;2.78;0.80;;;;;;;;;;4990797;28;20076;-57
2021/01/13 05:28:25;;;;;;;2.75;0.82;;;;;;;;;;4991809;28;20123;-56
2021/01/13 05:30:58;;;;;;;2.53;0.60;;;;;;;;;;4979689;28;20577;-55
2021/01/13 05:33:24;;;;;;;5.18;0.80;;;;;;;;;;4989823;28;20077;-57
2021/01/13 05:35:52;;;;;;;2.00;0.50;;;;;;;;;;4993165;28;20041;-56
2021/01/13 05:38:19;;;;;;;3.30;0.70;;;;;;;;;;4991080;28;20045;-57
2021/01/13 05:40:49;;;;;;;3.75;0.82;;;;;;;;;;4990536;28;20038;-57
2021/01/13 05:43:16;;;;;;;2.72;0.80;;;;;;;;;;4990531;28;20048;-58
2021/01/13 05:45:42;;;;;;;2.53;0.73;;;;;;;;;;4988099;28;20060;-57
2021/01/13 05:48:17;;;;;;;3.17;0.75;;;;;;;;;;4991903;28;20038;-57
2021/01/13 05:50:44;;;;;;;3.15;0.70;;;;;;;;;;4990078;28;20041;-54
2021/01/13 05:53:10;;;;;;;2.30;0.52;;;;;;;;;;4990539;28;20096;-57
2021/01/13 05:55:44;;;;;;;1.33;0.50;;;;;;;;;;4989151;28;20041;-57
2021/01/13 05:58:10;;;;;;;1.83;0.60;;;;;;;;;;4992860;28;20137;-56
2021/01/13 06:00:36;;;;;;;1.88;0.60;;;;;;;;;;4989078;28;20045;-57
2021/01/13 06:03:03;;;;;;;3.03;0.63;;;;;;;;;;4989069;28;20042;-56
2021/01/13 06:05:30;;;;;;;6.00;0.85;;;;;;;;;;4988899;28;20568;-57
2021/01/13 06:07:57;;;;;;;3.55;0.80;;;;;;;;;;4988472;28;20079;-58
2021/01/13 06:10:36;;;;;;;2.08;0.60;;;;;;;;;;4988976;28;20149;-56
2021/01/13 06:13:06;;;;;;;2.00;0.60;;;;;;;;;;4989141;28;20149;-57
2021/01/13 06:15:35;;;;;;;2.70;0.75;;;;;;;;;;4988249;28;20038;-57
2021/01/13 06:18:01;;;;;;;2.13;0.70;;;;;;;;;;4989554;28;20084;-58
2021/01/13 06:20:31;;;;;;;2.10;0.55;;;;;;;;;;4987641;28;20271;-54
2021/01/13 06:22:58;;;;;;;2.30;0.70;;;;;;;;;;4990497;28;20536;-56
2021/01/13 06:25:27;;;;;;;3.92;0.70;;;;;;;;;;4991333;28;20049;-56
2021/01/13 06:28:11;;;;;;;2.92;0.90;;;;;;;;;;4989620;28;20044;-57
2021/01/13 06:30:41;;;;;;;2.65;0.80;;;;;;;;;;4988987;28;20096;-56
2021/01/13 06:33:08;;;;;;;2.70;0.80;;;;;;;;;;4987980;28;20030;-56
2021/01/13 06:35:54;;;;;;;2.53;0.70;;;;;;;;;;4989820;28;20128;-57
2021/01/13 06:38:23;;;;;;;2.28;0.75;;;;;;;;;;4979259;28;20049;-57
2021/01/13 06:41:02;;;;;;;2.40;0.80;;;;;;;;;;4990239;28;20026;-57
2021/01/13 06:43:28;;;;;;;2.00;0.70;;;;;;;;;;4990068;28;20112;-57
2021/01/13 06:45:54;;;;;;;2.33;0.60;;;;;;;;;;4991099;28;20104;-57
2021/01/13 06:48:27;;;;;;;1.83;0.50;;;;;;;;;;4988272;28;20056;-57
2021/01/13 06:50:57;;;;;;;1.67;0.50;;;;;;;;;;4989541;28;20038;-57
2021/01/13 06:53:23;;;;;;;2.30;0.60;;;;;;;;;;4989706;28;20297;-56
2021/01/13 06:55:51;;;;;;;1.83;0.60;;;;;;;;;;4991540;28;20076;-57
2021/01/13 06:58:19;;;;;;;5.07;0.80;;;;;;;;;;4988985;28;20062;-58
2021/01/13 07:00:47;;;;;;;2.72;0.70;;;;;;;;;;4989827;28;20257;-57
2021/01/13 07:03:30;;;;;;;3.00;0.80;;;;;;;;;;4990880;28;20038;-57
2021/01/13 07:05:59;;;;;;;3.40;0.70;;;;;;;;;;4991483;28;20046;-57
2021/01/13 07:08:25;;;;;;;2.75;0.70;;;;;;;;;;4991516;28;20084;-57
2021/01/13 07:11:07;;;;;;;1.85;0.60;;;;;;;;;;4991218;28;20125;-57
2021/01/13 07:13:40;;;;;;;4.03;0.80;;;;;;;;;;4989893;28;20486;-57
2021/01/13 07:16:07;;;;;;;2.60;0.60;;;;;;;;;;4991918;28;20096;-57
2021/01/13 07:18:33;;;;;;;2.13;0.65;;;;;;;;;;4992365;28;20291;-57
2021/01/13 07:21:10;;;;;;;3.33;0.68;;;;;;;;;;4991412;28;20108;-58
2021/01/13 07:23:36;;;;;;;1.67;0.50;;;;;;;;;;4991697;28;20045;-56
2021/01/13 07:26:03;;;;;;;1.85;0.60;;;;;;;;;;4993946;28;20038;-57
2021/01/13 07:28:29;;;;;;;1.50;0.47;;;;;;;;;;4993505;28;20048;-57
2021/01/13 07:30:56;;;;;;;2.50;0.60;;;;;;;;;;4992039;28;20044;-57
2021/01/13 07:33:24;;;;;;;1.90;0.43;;;;;;;;;;4990804;28;20875;-57
2021/01/13 07:35:50;;;;;;;2.65;0.88;;;;;;;;;;4992795;28;20124;-55
2021/01/13 07:38:17;;;;;;;2.47;0.80;;;;;;;;;;4977748;28;20054;-55
2021/01/13 07:40:55;;;;;;;2.40;0.60;;;;;;;;;;4992888;28;20042;-56
2021/01/13 07:43:39;;;;;;;2.70;0.50;;;;;;;;;;4992794;28;22139;-57
2021/01/13 07:46:08;;;;;;;1.92;0.50;;;;;;;;;;4994453;28;20443;-56
2021/01/13 07:49:06;;;;;;;1.52;0.40;;;;;;;;;;4993399;28;20038;-56
2021/01/13 07:51:41;;;;;;;2.33;0.50;;;;;;;;;;4959420;28;20076;-56
2021/01/13 07:54:07;;;;;;;1.75;0.40;;;;;;;;;;4993633;28;20038;-56
2021/01/13 07:56:36;;;;;;;3.70;1.02;;;;;;;;;;4992846;28;20054;-56
2021/01/13 07:59:30;;;;;;;2.05;0.60;;;;;;;;;;4992632;28;20038;-56
2021/01/13 08:02:15;;;;;;;3.30;0.50;;;;;;;;;;4992903;28;20110;-56
2021/01/13 08:04:47;;;;;;;1.48;0.50;;;;;;;;;;4992284;28;20042;-56
2021/01/13 08:07:16;;;;;;;2.03;0.50;;;;;;;;;;4992829;28;20126;-56
2021/01/13 08:09:49;;;;;;;2.60;0.57;;;;;;;;;;4990662;28;20073;-57
2021/01/13 08:12:46;;;;;;;1.67;0.50;;;;;;;;;;4991917;28;20050;-56
2021/01/13 08:15:38;;;;;;;1.30;0.45;;;;;;;;;;4993837;28;20042;-57
2021/01/13 08:18:34;;;;;;;2.03;0.50;;;;;;;;;;4988664;28;20050;-57
2021/01/13 08:21:24;;;;;;;2.78;0.60;;;;;;;;;;4992038;28;20057;-57
2021/01/13 08:26:46;;;;;;;0.65;0.35;;;;;;;;;;4968037;28;20509;-57
2021/01/13 08:29:19;;;;;;;1.13;0.40;;;;;;;;;;4992223;28;20502;-57
2021/01/13 08:31:45;;;;;;;;;;;;;;;;;;4991173;28;20115;-57
2021/01/13 08:34:11;;;;;;;1.45;0.40;;;;;;;;;;4993088;28;19922;-56
2021/01/13 08:36:39;;;;;;;1.30;0.40;;;;;;;;;;4992272;28;20046;-57
2021/01/13 08:39:09;;;;;;;1.95;0.50;;;;;;;;;;4993181;28;20045;-56
2021/01/13 08:41:36;;;;;;;2.28;0.50;;;;;;;;;;4992016;28;20049;-57
2021/01/13 08:44:09;;;;;;;1.55;0.45;;;;;;;;;;4993315;28;20081;-57
2021/01/13 08:46:38;;;;;;;2.15;0.52;;;;;;;;;;4989968;28;20065;-57
2021/01/13 08:49:05;;;;;;;1.25;0.45;;;;;;;;;;4991596;28;20054;-57
2021/01/13 08:51:31;;;;;;;1.52;0.47;;;;;;;;;;4989758;28;20038;-57
2021/01/13 08:54:16;;;;;;;1.67;0.63;;;;;;;;;;4993690;28;20041;-57
2021/01/13 08:56:58;;;;;;;1.10;0.50;;;;;;;;;;4991988;28;20192;-57
2021/01/13 08:59:39;;;;;;;1.15;0.40;;;;;;;;;;4993310;28;20657;-57
2021/01/13 09:02:11;;;;;;;1.67;0.50;;;;;;;;;;4993543;28;20561;-57
2021/01/13 09:04:47;;;;;;;1.73;0.50;;;;;;;;;;4989902;28;20052;-57
2021/01/13 09:07:17;;;;;;;1.98;0.50;;;;;;;;;;4990711;28;20034;-57
2021/01/13 09:09:44;;;;;;;1.73;0.60;;;;;;;;;;4991823;28;20038;-57
2021/01/13 09:12:28;;;;;;;2.00;0.70;;;;;;;;;;4991962;28;20062;-57
2021/01/13 09:15:06;;;;;;;3.13;0.50;;;;;;;;;;4974642;28;20050;-56
2021/01/13 09:17:41;;;;;;;0.73;0.30;;;;;;;;;;4990907;28;20108;-57
2021/01/13 09:20:17;;;;;;;1.08;0.40;;;;;;;;;;4992803;28;20049;-57
2021/01/13 09:22:43;;;;;;;1.20;0.40;;;;;;;;;;4991485;28;20143;-57
2021/01/13 09:25:18;;;;;;;1.45;0.40;;;;;;;;;;4989341;28;20046;-56
2021/01/13 09:27:45;;;;;;;0.75;0.30;;;;;;;;;;4991599;28;20197;-58
2021/01/13 09:30:26;;;;;;;1.75;0.50;;;;;;;;;;4990599;28;20034;-57
2021/01/13 09:32:53;;;;;;;1.80;0.60;;;;;;;;;;4990184;28;20037;-56
2021/01/13 09:35:26;;;;;;;2.20;0.50;;;;;;;;;;4990661;28;20053;-57
2021/01/13 09:37:53;;;;;;;1.63;0.50;;;;;;;;;;4992052;28;20137;-57
2021/01/13 09:40:21;;;;;;;1.40;0.50;;;;;;;;;;4989844;28;20334;-57
2021/01/13 09:42:54;;;;;;;1.75;0.47;;;;;;;;;;4989835;28;20057;-57
2021/01/13 09:45:20;;;;;;;0.63;0.30;;;;;;;;;;4991106;28;20128;-57
2021/01/13 09:47:46;;;;;;;1.20;0.40;;;;;;;;;;4990674;28;20739;-57
2021/01/13 09:50:13;;;;;;;1.38;0.40;;;;;;;;;;4991142;28;20137;-57
2021/01/13 09:52:40;;;;;;;0.93;0.40;;;;;;;;;;4991653;28;20590;-57
2021/01/13 09:55:10;;;;;;;1.50;0.45;;;;;;;;;;4991771;28;20439;-57
2021/01/13 09:57:39;;;;;;;1.08;0.40;;;;;;;;;;4991729;28;20545;-56
2021/01/13 10:00:07;;;;;;;1.38;0.47;;;;;;;;;;4990236;28;20061;-56
2021/01/13 10:02:33;;;;;;;1.55;0.43;;;;;;;;;;4989763;28;20529;-57
2021/01/13 10:04:59;;;;;;;1.48;0.50;;;;;;;;;;4991349;28;20046;-57
2021/01/13 10:07:35;;;;;;;1.35;0.40;;;;;;;;;;4990263;28;20061;-55
2021/01/13 10:10:03;;;;;;;0.77;0.40;;;;;;;;;;4990503;28;20038;-57
2021/01/13 10:12:39;;;;;;;1.45;0.50;;;;;;;;;;4989714;28;20038;-56
2021/01/13 10:15:09;;;;;;;1.08;0.40;;;;;;;;;;4990924;28;20091;-56
2021/01/13 10:17:36;;;;;;;1.90;0.50;;;;;;;;;;4989113;28;20794;-56
2021/01/13 10:20:18;;;;;;;2.33;0.50;;;;;;;;;;4990240;28;20099;-56
2021/01/13 10:22:44;;;;;;;1.75;0.50;;;;;;;;;;4990842;28;20046;-56
2021/01/13 10:25:11;;;;;;;1.05;0.40;;;;;;;;;;4990027;28;20030;-54
2021/01/13 10:27:43;;;;;;;0.80;0.40;;;;;;;;;;4991126;28;20046;-56
2021/01/13 10:30:11;;;;;;;0.82;0.40;;;;;;;;;;4991543;28;20582;-56
2021/01/13 10:32:47;;;;;;;1.05;0.40;;;;;;;;;;4991532;28;21625;-56
2021/01/13 10:35:14;;;;;;;1.90;0.50;;;;;;;;;;4992844;28;20045;-56
2021/01/13 10:37:42;;;;;;;0.90;0.40;;;;;;;;;;4990396;28;20053;-56
2021/01/13 10:40:08;;;;;;;1.23;0.40;;;;;;;;;;4989256;28;20048;-55
2021/01/13 10:42:39;;;;;;;0.65;0.40;;;;;;;;;;4990478;28;20078;-57
2021/01/13 10:45:14;;;;;;;0.70;0.30;;;;;;;;;;4991515;28;20097;-56
2021/01/13 10:47:45;;;;;;;1.42;0.40;;;;;;;;;;4991791;28;20131;-55
2021/01/13 10:50:13;;;;;;;1.40;0.50;;;;;;;;;;4989472;28;20081;-57
2021/01/13 10:52:39;;;;;;;1.70;0.52;;;;;;;;;;4996209;28;20050;-56
2021/01/13 10:55:07;;;;;;;3.10;0.50;;;;;;;;;;4995108;28;20108;-56
2021/01/13 10:57:34;;;;;;;1.60;0.40;;;;;;;;;;4992530;28;20050;-55
2021/01/13 11:00:13;;;;;;;0.93;0.40;;;;;;;;;;4994114;28;20052;-56
2021/01/13 11:02:39;;;;;;;0.95;0.40;;;;;;;;;;4997001;28;20052;-56
2021/01/13 11:05:05;;;;;;;0.35;0.30;;;;;;;;;;4995669;28;20267;-56
2021/01/13 11:07:37;;;;;;;0.63;0.40;;;;;;;;;;4993927;28;20046;-56
2021/01/13 11:10:04;;;;;;;0.55;0.30;;;;;;;;;;4995545;28;20080;-56
2021/01/13 11:12:30;;;;;;;0.50;0.40;;;;;;;;;;4995548;28;22109;-56
2021/01/13 11:14:55;;;;;;;0.95;0.40;;;;;;;;;;4996902;28;20037;-57
2021/01/13 11:17:22;;;;;;;0.63;0.40;;;;;;;;;;4993480;28;20073;-56
2021/01/13 11:19:54;;;;;;;0.88;0.40;;;;;;;;;;4994547;28;20602;-57
2021/01/13 11:22:20;;;;;;;0.90;0.40;;;;;;;;;;4993423;28;20065;-56
2021/01/13 11:24:46;;;;;;;1.23;0.40;;;;;;;;;;4994669;28;20041;-56
2021/01/13 11:27:14;;;;;;;0.47;0.30;;;;;;;;;;4993760;28;20042;-54
2021/01/13 11:29:41;;;;;;;1.02;0.40;;;;;;;;;;4992353;28;20157;-55
2021/01/13 11:32:08;;;;;;;1.27;0.30;;;;;;;;;;4994560;28;20054;-56
2021/01/13 11:34:34;;;;;;;0.95;0.40;;;;;;;;;;4993223;28;20080;-56
2021/01/13 11:37:07;;;;;;;0.30;0.30;;;;;;;;;;4992027;28;20108;-56
2021/01/13 11:39:33;;;;;;;0.68;0.40;;;;;;;;;;4993887;28;20042;-56
2021/01/13 11:42:03;;;;;;;0.82;0.38;;;;;;;;;;4992893;28;20395;-56
2021/01/13 11:44:46;;;;;;;0.68;0.40;;;;;;;;;;4991719;28;20046;-55
2021/01/13 11:47:19;;;;;;;0.82;0.40;;;;;;;;;;4993395;28;20034;-57
2021/01/13 11:49:55;;;;;;;0.85;0.40;;;;;;;;;;4993007;28;20034;-56
2021/01/13 11:52:23;;;;;;;2.42;0.40;;;;;;;;;;4992169;28;20046;-56
2021/01/13 11:54:50;;;;;;;1.00;0.40;;;;;;;;;;4991460;28;20066;-56
2021/01/13 11:57:30;;;;;;;0.47;0.30;;;;;;;;;;4994254;28;20068;-56
2021/01/13 12:00:10;;;;;;;1.17;0.35;;;;;;;;;;4993068;28;20053;-57
2021/01/13 12:02:36;;;;;;;1.13;0.40;;;;;;;;;;4990085;28;20451;-57
2021/01/13 12:05:03;;;;;;;1.58;0.40;;;;;;;;;;4993285;28;20060;-56
2021/01/13 12:07:29;;;;;;;1.02;0.40;;;;;;;;;;4992603;28;20407;-57
2021/01/13 12:10:11;;;;;;;0.88;0.40;;;;;;;;;;4993330;28;20048;-56
2021/01/13 12:12:37;;;;;;;1.00;0.40;;;;;;;;;;4989967;28;20038;-55
2021/01/13 12:15:08;;;;;;;1.27;0.40;;;;;;;;;;4991909;28;20038;-54
2021/01/13 12:17:34;;;;;;;1.02;0.40;;;;;;;;;;4992653;28;20058;-55
2021/01/13 12:20:00;;;;;;;0.75;0.40;;;;;;;;;;4993404;28;20117;-54
2021/01/13 12:22:35;;;;;;;1.67;0.50;;;;;;;;;;4992896;28;20125;-57
2021/01/13 12:25:01;;;;;;;0.73;0.40;;;;;;;;;;4994694;28;20045;-57
2021/01/13 12:27:28;;;;;;;1.52;0.40;;;;;;;;;;4992968;28;20093;-57
2021/01/13 12:30:07;;;;;;;1.55;0.40;;;;;;;;;;4991887;28;20034;-57
2021/01/13 12:32:33;;;;;;;1.33;0.40;;;;;;;;;;4991335;28;21929;-57
2021/01/13 12:34:59;;;;;;;0.85;0.40;;;;;;;;;;4993362;28;20070;-56
2021/01/13 12:37:25;;;;;;;1.52;0.40;;;;;;;;;;4992113;28;20510;-56
2021/01/13 12:39:58;;;;;;;0.98;0.40;;;;;;;;;;4993449;28;20824;-57
2021/01/13 12:42:33;;;;;;;1.30;0.40;;;;;;;;;;4991797;28;20030;-58
2021/01/13 12:45:00;;;;;;;0.63;0.40;;;;;;;;;;4993115;28;20295;-57
2021/01/13 12:47:28;;;;;;;0.77;0.30;;;;;;;;;;4991353;28;20038;-57
2021/01/13 12:49:55;;;;;;;1.90;0.50;;;;;;;;;;4993280;28;20089;-58
2021/01/13 12:52:21;;;;;;;2.63;0.45;;;;;;;;;;4992132;28;20046;-58
2021/01/13 12:54:47;;;;;;;0.73;0.40;;;;;;;;;;4992828;28;20077;-58
2021/01/13 12:57:13;;;;;;;0.80;0.40;;;;;;;;;;4992387;28;20054;-57
2021/01/13 12:59:39;;;;;;;0.90;0.40;;;;;;;;;;4992556;28;20152;-56
2021/01/13 13:02:06;;;;;;;1.65;0.50;;;;;;;;;;4994413;28;20038;-57
2021/01/13 13:04:31;;;;;;;0.98;0.45;;;;;;;;;;4991956;28;20042;-57
2021/01/13 13:06:57;;;;;;;1.48;0.40;;;;;;;;;;4991517;28;20091;-57
2021/01/13 13:09:23;;;;;;;1.08;0.50;;;;;;;;;;4990446;28;20233;-57
2021/01/13 13:11:49;;;;;;;1.45;0.50;;;;;;;;;;4992578;28;20041;-57
2021/01/13 13:14:15;;;;;;;2.63;0.50;;;;;;;;;;4992098;28;20045;-56
2021/01/13 13:16:41;;;;;;;1.10;0.50;;;;;;;;;;4989513;28;20578;-57
2021/01/13 13:19:08;;;;;;;2.45;0.60;;;;;;;;;;4991928;28;20395;-56
2021/01/13 13:21:34;;;;;;;1.48;0.50;;;;;;;;;;4992103;28;20048;-56
2021/01/13 13:23:59;;;;;;;1.88;0.50;;;;;;;;;;4992833;28;20041;-57
2021/01/13 13:26:26;;;;;;;1.92;0.63;;;;;;;;;;4989763;28;20510;-57
2021/01/13 13:28:52;;;;;;;1.77;0.60;;;;;;;;;;4991921;28;20108;-59
2021/01/13 13:31:19;;;;;;;2.00;0.60;;;;;;;;;;4992757;28;20034;-58
2021/01/13 13:33:45;;;;;;;2.15;0.60;;;;;;;;;;4990968;28;20042;-56
2021/01/13 13:36:11;;;;;;;2.30;0.60;;;;;;;;;;4986455;28;20529;-58
2021/01/13 13:38:37;;;;;;;1.58;0.50;;;;;;;;;;4988534;28;20042;-58
2021/01/13 13:41:04;;;;;;;1.55;0.50;;;;;;;;;;4992393;28;20038;-57
2021/01/13 13:43:30;;;;;;;2.40;0.50;;;;;;;;;;4991209;28;20068;-57
2021/01/13 13:45:56;;;;;;;1.90;0.60;;;;;;;;;;4992425;28;20763;-57
2021/01/13 13:48:22;;;;;;;2.03;0.52;;;;;;;;;;4993500;28;20716;-57
2021/01/13 13:50:52;;;;;;;2.35;0.60;;;;;;;;;;4991565;28;20445;-57
2021/01/13 13:53:17;;;;;;;1.83;0.50;;;;;;;;;;4993547;28;20038;-57
2021/01/13 13:55:43;;;;;;;1.95;0.60;;;;;;;;;;4991710;28;20045;-56
2021/01/13 13:58:09;;;;;;;3.03;0.60;;;;;;;;;;4993780;28;20049;-57
2021/01/13 14:00:35;;;;;;;2.50;0.70;;;;;;;;;;4992667;28;20117;-57
2021/01/13 14:03:01;;;;;;;4.68;0.70;;;;;;;;;;4992189;28;20030;-57
2021/01/13 14:05:27;;;;;;;3.20;1.20;;;;;;;;;;4991937;28;20057;-57
2021/01/13 14:07:53;;;;;;;3.00;0.63;;;;;;;;;;4993653;28;20794;-57
2021/01/13 14:10:19;;;;;;;1.77;0.50;;;;;;;;;;4995577;28;20042;-57
2021/01/13 14:12:47;;;;;;;2.08;0.40;;;;;;;;;;4995483;28;20308;-57
2021/01/13 14:15:13;;;;;;;1.05;0.40;;;;;;;;;;4995945;28;20044;-57
2021/01/13 14:17:39;;;;;;;3.15;0.40;;;;;;;;;;4994284;28;20058;-56
2021/01/13 14:20:05;;;;;;;1.05;0.40;;;;;;;;;;4993773;28;20487;-56
2021/01/13 14:22:31;;;;;;;1.23;0.32;;;;;;;;;;4989422;28;20034;-55
2021/01/13 14:24:57;;;;;;;1.30;0.40;;;;;;;;;;4989460;28;20048;-56
2021/01/13 14:27:23;;;;;;;1.40;0.40;;;;;;;;;;4996225;28;20038;-57
2021/01/13 14:29:50;;;;;;;0.93;0.32;;;;;;;;;;4996255;28;20053;-56
2021/01/13 14:32:16;;;;;;;1.20;0.40;;;;;;;;;;4997091;28;20068;-56
2021/01/13 14:34:42;;;;;;;1.00;0.35;;;;;;;;;;4993435;28;20053;-57
2021/01/13 14:37:09;;;;;;;0.90;0.40;;;;;;;;;;4993050;28;20054;-57
2021/01/13 14:39:36;;;;;;;0.30;0.30;;;;;;;;;;4994097;28;20048;-57
2021/01/13 14:42:05;;;;;;;1.98;0.40;;;;;;;;;;4994252;28;20038;-56
2021/01/13 14:44:31;;;;;;;1.25;0.40;;;;;;;;;;4993527;28;20981;-57
2021/01/13 14:46:57;;;;;;;0.98;0.43;;;;;;;;;;4995377;28;20042;-58
2021/01/13 14:49:23;;;;;;;1.65;0.32;;;;;;;;;;4995078;28;20046;-58
2021/01/13 14:51:49;;;;;;;0.65;0.40;;;;;;;;;;4996578;28;20548;-58
2021/01/13 14:54:15;;;;;;;0.70;0.30;;;;;;;;;;4996205;28;20038;-57
2021/01/13 14:56:41;;;;;;;2.55;0.40;;;;;;;;;;4993114;28;20069;-55
2021/01/13 14:59:07;;;;;;;1.92;0.40;;;;;;;;;;4993617;28;20039;-55
2021/01/13 15:01:33;;;;;;;0.30;0.30;;;;;;;;;;4994031;28;20156;-57